sensor_id;sensor_type;location;lat;lon;timestamp;pressure;altitude;pressure_sealevel;temperature;humidity
18436;BME280;9346;52.006;4.720;2023-05-09T00:01:33;101689.41;;;15.75;100.00
18436;BME280;9346;52.006;4.720;2023-05-09T00:04:02;101685.25;;;15.72;100.00
18436;BME280;9346;52.006;4.720;2023-05-09T00:06:29;101689.47;;;15.70;100.00
18436;BME280;9346;52.006;4.720;2023-05-09T00:08:56;101687.81;;;15.69;100.00
18436;BME280;9346;52.006;4.720;2023-05-09T00:11:23;101692.53;;;15.68;100.00
18436;BME280;9346;52.006;4.720;2023-05-09T00:13:50;101686.97;;;15.68;100.00
18436;BME280;9346;52.006;4.720;2023-05-09T00:16:17;101681.94;;;15.70;100.00
18436;BME280;9346;52.006;4.720;2023-05-09T00:18:45;101679.22;;;15.65;100.00
18436;BME280;9346;52.006;4.720;2023-05-09T00:21:14;101677.56;;;15.64;100.00
18436;BME280;9346;52.006;4.720;2023-05-09T00:23:41;101678.66;;;15.63;100.00
18436;BME280;9346;52.006;4.720;2023-05-09T00:26:08;101686.19;;;15.63;100.00
18436;BME280;9346;52.006;4.720;2023-05-09T00:28:38;101680.06;;;15.60;100.00
18436;BME280;9346;52.006;4.720;2023-05-09T00:31:05;101672.31;;;15.57;100.00
18436;BME280;9346;52.006;4.720;2023-05-09T00:33:32;101663.13;;;15.57;100.00
18436;BME280;9346;52.006;4.720;2023-05-09T00:35:59;101665.09;;;15.56;100.00
18436;BME280;9346;52.006;4.720;2023-05-09T00:38:31;101665.09;;;15.56;100.00
18436;BME280;9346;52.006;4.720;2023-05-09T00:40:58;101666.19;;;15.55;100.00
18436;BME280;9346;52.006;4.720;2023-05-09T00:43:25;101655.94;;;15.56;100.00
18436;BME280;9346;52.006;4.720;2023-05-09T00:45:52;101655.41;;;15.54;100.00
18436;BME280;9346;52.006;4.720;2023-05-09T00:48:20;101652.06;;;15.52;100.00
18436;BME280;9346;52.006;4.720;2023-05-09T00:50:47;101638.47;;;15.50;100.00
18436;BME280;9346;52.006;4.720;2023-05-09T00:53:17;101638.78;;;15.49;100.00
18436;BME280;9346;52.006;4.720;2023-05-09T00:55:46;101640.72;;;15.48;100.00
18436;BME280;9346;52.006;4.720;2023-05-09T00:58:13;101641.00;;;15.47;100.00
18436;BME280;9346;52.006;4.720;2023-05-09T01:00:40;101640.19;;;15.46;100.00
18436;BME280;9346;52.006;4.720;2023-05-09T01:03:07;101629.38;;;15.45;100.00
18436;BME280;9346;52.006;4.720;2023-05-09T01:05:55;101628.25;;;15.46;100.00
18436;BME280;9346;52.006;4.720;2023-05-09T01:08:35;101618.25;;;15.45;100.00
18436;BME280;9346;52.006;4.720;2023-05-09T01:11:10;101624.91;;;15.44;100.00
18436;BME280;9346;52.006;4.720;2023-05-09T01:13:45;101611.31;;;15.42;100.00
18436;BME280;9346;52.006;4.720;2023-05-09T01:16:22;101612.44;;;15.41;100.00
18436;BME280;9346;52.006;4.720;2023-05-09T01:18:55;101610.25;;;15.38;100.00
18436;BME280;9346;52.006;4.720;2023-05-09T01:21:28;101599.13;;;15.38;100.00
18436;BME280;9346;52.006;4.720;2023-05-09T01:24:21;101590.81;;;15.38;100.00
18436;BME280;9346;52.006;4.720;2023-05-09T01:27:24;101591.94;;;15.37;100.00
18436;BME280;9346;52.006;4.720;2023-05-09T01:29:57;101591.09;;;15.37;100.00
18436;BME280;9346;52.006;4.720;2023-05-09T01:32:27;101580.81;;;15.37;100.00
18436;BME280;9346;52.006;4.720;2023-05-09T01:34:59;101574.69;;;15.35;100.00
18436;BME280;9346;52.006;4.720;2023-05-09T01:37:29;101573.34;;;15.38;100.00
18436;BME280;9346;52.006;4.720;2023-05-09T01:39:59;101570.56;;;15.38;100.00
18436;BME280;9346;52.006;4.720;2023-05-09T01:42:34;101571.09;;;15.35;100.00
18436;BME280;9346;52.006;4.720;2023-05-09T01:45:05;101568.34;;;15.35;100.00
18436;BME280;9346;52.006;4.720;2023-05-09T01:47:34;101568.06;;;15.36;100.00
18436;BME280;9346;52.006;4.720;2023-05-09T01:50:02;101561.66;;;15.36;100.00
18436;BME280;9346;52.006;4.720;2023-05-09T01:52:31;101565.00;;;15.38;100.00
18436;BME280;9346;52.006;4.720;2023-05-09T01:55:00;101560.81;;;15.35;100.00
18436;BME280;9346;52.006;4.720;2023-05-09T01:57:32;101557.22;;;15.35;100.00
18436;BME280;9346;52.006;4.720;2023-05-09T02:00:00;101558.31;;;15.34;100.00
18436;BME280;9346;52.006;4.720;2023-05-09T02:02:29;101558.31;;;15.34;100.00
18436;BME280;9346;52.006;4.720;2023-05-09T02:04:56;101551.97;;;15.33;100.00
18436;BME280;9346;52.006;4.720;2023-05-09T02:07:24;101542.78;;;15.33;100.00
18436;BME280;9346;52.006;4.720;2023-05-09T02:09:54;101541.94;;;15.32;100.00
18436;BME280;9346;52.006;4.720;2023-05-09T02:12:21;101544.72;;;15.32;100.00
18436;BME280;9346;52.006;4.720;2023-05-09T02:14:49;101545.28;;;15.34;100.00
18436;BME280;9346;52.006;4.720;2023-05-09T02:17:16;101541.94;;;15.32;100.00
18436;BME280;9346;52.006;4.720;2023-05-09T02:19:45;101538.66;;;15.30;100.00
18436;BME280;9346;52.006;4.720;2023-05-09T02:22:12;101535.03;;;15.30;100.00
18436;BME280;9346;52.006;4.720;2023-05-09T02:24:41;101537.81;;;15.30;100.00
18436;BME280;9346;52.006;4.720;2023-05-09T02:27:09;101536.47;;;15.27;100.00
18436;BME280;9346;52.006;4.720;2023-05-09T02:29:40;101522.03;;;15.25;100.00
18436;BME280;9346;52.006;4.720;2023-05-09T02:32:10;101520.91;;;15.26;100.00
18436;BME280;9346;52.006;4.720;2023-05-09T02:34:38;101521.19;;;15.25;100.00
18436;BME280;9346;52.006;4.720;2023-05-09T02:37:09;101521.19;;;15.25;100.00
18436;BME280;9346;52.006;4.720;2023-05-09T02:39:36;101525.09;;;15.24;100.00
18436;BME280;9346;52.006;4.720;2023-05-09T02:42:08;101513.47;;;15.22;100.00
18436;BME280;9346;52.006;4.720;2023-05-09T02:44:35;101514.56;;;15.21;100.00
18436;BME280;9346;52.006;4.720;2023-05-09T02:47:03;101511.28;;;15.19;100.00
18436;BME280;9346;52.006;4.720;2023-05-09T02:49:31;101510.44;;;15.18;100.00
18436;BME280;9346;52.006;4.720;2023-05-09T02:51:58;101511.28;;;15.19;100.00
18436;BME280;9346;52.006;4.720;2023-05-09T02:54:28;101512.06;;;15.19;100.00
18436;BME280;9346;52.006;4.720;2023-05-09T02:56:55;101506.53;;;15.19;100.00
18436;BME280;9346;52.006;4.720;2023-05-09T02:59:22;101500.16;;;15.19;100.00
18436;BME280;9346;52.006;4.720;2023-05-09T03:01:49;101494.63;;;15.19;100.00
18436;BME280;9346;52.006;4.720;2023-05-09T03:04:16;101495.72;;;15.18;100.00
18436;BME280;9346;52.006;4.720;2023-05-09T03:06:43;101489.06;;;15.19;100.00
18436;BME280;9346;52.006;4.720;2023-05-09T03:09:11;101489.34;;;15.17;100.00
18436;BME280;9346;52.006;4.720;2023-05-09T03:11:40;101481.31;;;15.16;100.00
18436;BME280;9346;52.006;4.720;2023-05-09T03:14:08;101482.13;;;15.16;100.00
18436;BME280;9346;52.006;4.720;2023-05-09T03:16:35;101473.81;;;15.16;100.00
18436;BME280;9346;52.006;4.720;2023-05-09T03:19:05;101469.94;;;15.17;100.00
18436;BME280;9346;52.006;4.720;2023-05-09T03:21:32;101471.31;;;15.15;100.00
18436;BME280;9346;52.006;4.720;2023-05-09T03:23:59;101471.31;;;15.15;100.00
18436;BME280;9346;52.006;4.720;2023-05-09T03:26:28;101469.66;;;15.14;100.00
18436;BME280;9346;52.006;4.720;2023-05-09T03:28:57;101454.66;;;15.15;100.00
18436;BME280;9346;52.006;4.720;2023-05-09T03:31:24;101463.00;;;15.15;100.00
18436;BME280;9346;52.006;4.720;2023-05-09T03:33:51;101461.06;;;15.15;100.00
18436;BME280;9346;52.006;4.720;2023-05-09T03:36:18;101461.06;;;15.15;100.00
18436;BME280;9346;52.006;4.720;2023-05-09T03:38:46;101458.56;;;15.14;100.00
18436;BME280;9346;52.006;4.720;2023-05-09T03:41:15;101454.16;;;15.13;100.00
18436;BME280;9346;52.006;4.720;2023-05-09T03:43:43;101457.44;;;15.15;100.00
18436;BME280;9346;52.006;4.720;2023-05-09T03:46:11;101451.88;;;15.15;100.00
18436;BME280;9346;52.006;4.720;2023-05-09T03:48:38;101453.84;;;15.14;100.00
18436;BME280;9346;52.006;4.720;2023-05-09T03:51:05;101445.81;;;15.13;100.00
18436;BME280;9346;52.006;4.720;2023-05-09T03:53:32;101447.47;;;15.14;100.00
18436;BME280;9346;52.006;4.720;2023-05-09T03:56:00;101441.91;;;15.14;100.00
18436;BME280;9346;52.006;4.720;2023-05-09T03:58:27;101436.38;;;15.14;100.00
18436;BME280;9346;52.006;4.720;2023-05-09T04:00:54;101440.28;;;15.13;100.00
18436;BME280;9346;52.006;4.720;2023-05-09T04:03:23;101436.94;;;15.11;100.00
18436;BME280;9346;52.006;4.720;2023-05-09T04:05:51;101434.72;;;15.13;100.00
18436;BME280;9346;52.006;4.720;2023-05-09T04:08:18;101429.19;;;15.13;100.00
18436;BME280;9346;52.006;4.720;2023-05-09T04:10:45;101428.34;;;15.12;100.00
18436;BME280;9346;52.006;4.720;2023-05-09T04:13:12;101428.63;;;15.11;100.00
18436;BME280;9346;52.006;4.720;2023-05-09T04:15:39;101429.19;;;15.13;100.00
18436;BME280;9346;52.006;4.720;2023-05-09T04:18:06;101426.41;;;15.13;100.00
18436;BME280;9346;52.006;4.720;2023-05-09T04:20:35;101424.19;;;15.10;100.00
18436;BME280;9346;52.006;4.720;2023-05-09T04:23:04;101418.94;;;15.08;100.00
18436;BME280;9346;52.006;4.720;2023-05-09T04:25:31;101424.50;;;15.08;100.00
18436;BME280;9346;52.006;4.720;2023-05-09T04:27:59;101416.47;;;15.07;100.00
18436;BME280;9346;52.006;4.720;2023-05-09T04:30:26;101415.34;;;15.08;100.00
18436;BME280;9346;52.006;4.720;2023-05-09T04:32:53;101419.78;;;15.09;100.00
18436;BME280;9346;52.006;4.720;2023-05-09T04:35:21;101418.09;;;15.08;100.00
18436;BME280;9346;52.006;4.720;2023-05-09T04:37:51;101421.72;;;15.08;100.00
18436;BME280;9346;52.006;4.720;2023-05-09T04:40:18;101415.88;;;15.10;100.00
18436;BME280;9346;52.006;4.720;2023-05-09T04:42:45;101417.00;;;15.09;100.00
18436;BME280;9346;52.006;4.720;2023-05-09T04:45:11;101421.13;;;15.11;100.00
18436;BME280;9346;52.006;4.720;2023-05-09T04:47:39;101409.19;;;15.11;100.00
18436;BME280;9346;52.006;4.720;2023-05-09T04:50:07;101406.13;;;15.12;100.00
18436;BME280;9346;52.006;4.720;2023-05-09T04:52:34;101411.69;;;15.12;100.00
18436;BME280;9346;52.006;4.720;2023-05-09T04:55:05;101404.50;;;15.11;100.00
18436;BME280;9346;52.006;4.720;2023-05-09T04:57:32;101404.19;;;15.13;100.00
18436;BME280;9346;52.006;4.720;2023-05-09T04:59:59;101396.41;;;15.15;100.00
18436;BME280;9346;52.006;4.720;2023-05-09T05:02:26;101396.41;;;15.15;100.00
18436;BME280;9346;52.006;4.720;2023-05-09T05:04:53;101390.03;;;15.14;100.00
18436;BME280;9346;52.006;4.720;2023-05-09T05:07:19;101383.38;;;15.15;100.00
18436;BME280;9346;52.006;4.720;2023-05-09T05:09:46;101372.81;;;15.17;100.00
18436;BME280;9346;52.006;4.720;2023-05-09T05:12:15;101367.25;;;15.17;100.00
18436;BME280;9346;52.006;4.720;2023-05-09T05:14:42;101366.13;;;15.18;100.00
18436;BME280;9346;52.006;4.720;2023-05-09T05:17:09;101356.69;;;15.19;100.00
18436;BME280;9346;52.006;4.720;2023-05-09T05:19:36;101351.97;;;15.20;100.00
18436;BME280;9346;52.006;4.720;2023-05-09T05:22:03;101347.25;;;15.20;100.00
18436;BME280;9346;52.006;4.720;2023-05-09T05:24:30;101349.19;;;15.20;100.00
18436;BME280;9346;52.006;4.720;2023-05-09T05:26:57;101342.00;;;15.19;100.00
18436;BME280;9346;52.006;4.720;2023-05-09T05:29:25;101335.59;;;15.18;100.00
18436;BME280;9346;52.006;4.720;2023-05-09T05:31:53;101334.75;;;15.18;100.00
18436;BME280;9346;52.006;4.720;2023-05-09T05:34:19;101343.09;;;15.18;100.00
18436;BME280;9346;52.006;4.720;2023-05-09T05:36:47;101338.38;;;15.18;100.00
18436;BME280;9346;52.006;4.720;2023-05-09T05:39:13;101336.44;;;15.19;100.00
18436;BME280;9346;52.006;4.720;2023-05-09T05:41:40;101343.94;;;15.18;100.00
18436;BME280;9346;52.006;4.720;2023-05-09T05:44:07;101338.94;;;15.20;100.00
18436;BME280;9346;52.006;4.720;2023-05-09T05:46:35;101336.16;;;15.20;100.00
18436;BME280;9346;52.006;4.720;2023-05-09T05:49:09;101340.28;;;15.23;100.00
18436;BME280;9346;52.006;4.720;2023-05-09T05:51:36;101345.84;;;15.23;100.00
18436;BME280;9346;52.006;4.720;2023-05-09T05:54:03;101342.50;;;15.21;100.00
18436;BME280;9346;52.006;4.720;2023-05-09T05:56:30;101347.53;;;15.19;100.00
18436;BME280;9346;52.006;4.720;2023-05-09T05:58:57;101341.44;;;15.17;100.00
18436;BME280;9346;52.006;4.720;2023-05-09T06:01:24;101339.81;;;15.16;100.00
18436;BME280;9346;52.006;4.720;2023-05-09T06:03:53;101333.41;;;15.15;100.00
18436;BME280;9346;52.006;4.720;2023-05-09T06:06:20;101338.41;;;15.13;100.00
18436;BME280;9346;52.006;4.720;2023-05-09T06:08:47;101336.47;;;15.14;100.00
18436;BME280;9346;52.006;4.720;2023-05-09T06:11:15;101335.94;;;15.12;100.00
18436;BME280;9346;52.006;4.720;2023-05-09T06:13:43;101326.50;;;15.13;100.00
18436;BME280;9346;52.006;4.720;2023-05-09T06:16:09;101329.28;;;15.13;100.00
18436;BME280;9346;52.006;4.720;2023-05-09T06:18:37;101323.44;;;15.14;100.00
18436;BME280;9346;52.006;4.720;2023-05-09T06:21:06;101320.66;;;15.14;100.00
18436;BME280;9346;52.006;4.720;2023-05-09T06:23:33;101326.44;;;15.18;100.00
18436;BME280;9346;52.006;4.720;2023-05-09T06:26:04;101314.53;;;15.17;100.00
18436;BME280;9346;52.006;4.720;2023-05-09T06:28:31;101313.41;;;15.18;100.00
18436;BME280;9346;52.006;4.720;2023-05-09T06:30:58;101321.72;;;15.18;100.00
18436;BME280;9346;52.006;4.720;2023-05-09T06:33:25;101321.72;;;15.18;100.00
18436;BME280;9346;52.006;4.720;2023-05-09T06:35:52;101320.91;;;15.18;100.00
18436;BME280;9346;52.006;4.720;2023-05-09T06:38:21;101309.50;;;15.19;100.00
18436;BME280;9346;52.006;4.720;2023-05-09T06:40:48;101311.19;;;15.20;100.00
18436;BME280;9346;52.006;4.720;2023-05-09T06:43:15;101309.78;;;15.18;100.00
18436;BME280;9346;52.006;4.720;2023-05-09T06:45:42;101312.56;;;15.18;100.00
18436;BME280;9346;52.006;4.720;2023-05-09T06:48:09;101308.44;;;15.15;100.00
18436;BME280;9346;52.006;4.720;2023-05-09T06:50:37;101302.59;;;15.17;100.00
18436;BME280;9346;52.006;4.720;2023-05-09T06:53:04;101300.41;;;15.14;100.00
18436;BME280;9346;52.006;4.720;2023-05-09T06:55:34;101299.06;;;15.11;100.00
18436;BME280;9346;52.006;4.720;2023-05-09T06:58:02;101296.00;;;15.13;100.00
18436;BME280;9346;52.006;4.720;2023-05-09T07:00:32;101297.09;;;15.12;100.00
18436;BME280;9346;52.006;4.720;2023-05-09T07:02:59;101287.97;;;15.11;100.00
18436;BME280;9346;52.006;4.720;2023-05-09T07:05:26;101288.19;;;15.15;100.00
18436;BME280;9346;52.006;4.720;2023-05-09T07:07:53;101287.59;;;15.18;100.00
18436;BME280;9346;52.006;4.720;2023-05-09T07:10:21;101285.94;;;15.17;100.00
18436;BME280;9346;52.006;4.720;2023-05-09T07:12:49;101283.19;;;15.17;100.00
18436;BME280;9346;52.006;4.720;2023-05-09T07:15:16;101280.41;;;15.17;100.00
18436;BME280;9346;52.006;4.720;2023-05-09T07:17:46;101271.78;;;15.18;100.00
18436;BME280;9346;52.006;4.720;2023-05-09T07:20:13;101274.28;;;15.20;100.00
18436;BME280;9346;52.006;4.720;2023-05-09T07:22:40;101273.97;;;15.21;100.00
18436;BME280;9346;52.006;4.720;2023-05-09T07:25:08;101269.25;;;15.22;100.00
18436;BME280;9346;52.006;4.720;2023-05-09T07:27:35;101259.25;;;15.21;100.00
18436;BME280;9346;52.006;4.720;2023-05-09T07:30:05;101259.25;;;15.21;100.00
18436;BME280;9346;52.006;4.720;2023-05-09T07:32:33;101257.88;;;15.23;100.00
18436;BME280;9346;52.006;4.720;2023-05-09T07:35:00;101257.03;;;15.23;100.00
18436;BME280;9346;52.006;4.720;2023-05-09T07:37:28;101255.69;;;15.20;100.00
18436;BME280;9346;52.006;4.720;2023-05-09T07:39:54;101248.44;;;15.19;100.00
18436;BME280;9346;52.006;4.720;2023-05-09T07:42:21;101243.19;;;15.18;100.00
18436;BME280;9346;52.006;4.720;2023-05-09T07:44:48;101236.56;;;15.19;100.00
18436;BME280;9346;52.006;4.720;2023-05-09T07:47:16;101234.28;;;15.21;100.00
18436;BME280;9346;52.006;4.720;2023-05-09T07:49:43;101229.28;;;15.23;100.00
18436;BME280;9346;52.006;4.720;2023-05-09T07:52:10;101228.16;;;15.24;100.00
18436;BME280;9346;52.006;4.720;2023-05-09T07:54:37;101233.41;;;15.25;100.00
18436;BME280;9346;52.006;4.720;2023-05-09T07:57:04;101231.16;;;15.27;100.00
18436;BME280;9346;52.006;4.720;2023-05-09T07:59:31;101231.38;;;15.31;100.00
18436;BME280;9346;52.006;4.720;2023-05-09T08:01:58;101221.97;;;15.32;100.00
18436;BME280;9346;52.006;4.720;2023-05-09T08:04:27;101217.81;;;15.29;100.00
18436;BME280;9346;52.006;4.720;2023-05-09T08:06:54;101214.81;;;15.26;100.00
18436;BME280;9346;52.006;4.720;2023-05-09T08:09:22;101208.44;;;15.25;100.00
18436;BME280;9346;52.006;4.720;2023-05-09T08:11:50;101208.13;;;15.27;100.00
18436;BME280;9346;52.006;4.720;2023-05-09T08:14:17;101206.50;;;15.26;100.00
18436;BME280;9346;52.006;4.720;2023-05-09T08:16:44;101203.41;;;15.27;100.00
18436;BME280;9346;52.006;4.720;2023-05-09T08:19:12;101199.22;;;15.30;100.00
18436;BME280;9346;52.006;4.720;2023-05-09T08:21:41;101199.22;;;15.30;100.00
18436;BME280;9346;52.006;4.720;2023-05-09T08:24:07;101190.28;;;15.33;100.00
18436;BME280;9346;52.006;4.720;2023-05-09T08:26:34;101195.00;;;15.32;100.00
18436;BME280;9346;52.006;4.720;2023-05-09T08:29:01;101181.44;;;15.31;100.00
18436;BME280;9346;52.006;4.720;2023-05-09T08:31:29;101186.38;;;15.34;100.00
18436;BME280;9346;52.006;4.720;2023-05-09T08:33:55;101179.19;;;15.33;100.00
18436;BME280;9346;52.006;4.720;2023-05-09T08:36:22;101170.88;;;15.33;100.00
18436;BME280;9346;52.006;4.720;2023-05-09T08:38:51;101168.38;;;15.31;100.00
18436;BME280;9346;52.006;4.720;2023-05-09T08:41:21;101171.16;;;15.31;100.00
18436;BME280;9346;52.006;4.720;2023-05-09T08:43:51;101171.41;;;15.35;100.00
18436;BME280;9346;52.006;4.720;2023-05-09T08:46:24;101171.75;;;15.28;100.00
18436;BME280;9346;52.006;4.720;2023-05-09T08:48:53;101169.28;;;15.27;100.00
18436;BME280;9346;52.006;4.720;2023-05-09T08:51:21;101163.19;;;15.25;100.00
18436;BME280;9346;52.006;4.720;2023-05-09T08:53:50;101165.16;;;15.24;100.00
18436;BME280;9346;52.006;4.720;2023-05-09T08:56:18;101163.19;;;15.25;100.00
18436;BME280;9346;52.006;4.720;2023-05-09T08:58:45;101157.13;;;15.23;100.00
18436;BME280;9346;52.006;4.720;2023-05-09T09:01:13;101154.06;;;15.24;100.00
18436;BME280;9346;52.006;4.720;2023-05-09T09:03:42;101158.72;;;15.29;100.00
18436;BME280;9346;52.006;4.720;2023-05-09T09:06:12;101158.94;;;15.32;100.00
18436;BME280;9346;52.006;4.720;2023-05-09T09:08:39;101150.59;;;15.32;100.00
18436;BME280;9346;52.006;4.720;2023-05-09T09:11:09;101151.75;;;15.31;100.00
18436;BME280;9346;52.006;4.720;2023-05-09T09:13:39;101152.56;;;15.32;100.00
18436;BME280;9346;52.006;4.720;2023-05-09T09:16:08;101151.44;;;15.33;100.00
18436;BME280;9346;52.006;4.720;2023-05-09T09:18:36;101148.38;;;15.34;100.00
18436;BME280;9346;52.006;4.720;2023-05-09T09:21:09;101145.88;;;15.38;100.00
18436;BME280;9346;52.006;4.720;2023-05-09T09:23:39;101139.47;;;15.37;100.00
18436;BME280;9346;52.006;4.720;2023-05-09T09:26:09;101135.06;;;15.36;100.00
18436;BME280;9346;52.006;4.720;2023-05-09T09:28:35;101138.34;;;15.38;100.00
18436;BME280;9346;52.006;4.720;2023-05-09T09:31:17;101131.38;;;15.41;100.00
18436;BME280;9346;52.006;4.720;2023-05-09T09:33:44;101132.50;;;15.40;100.00
18436;BME280;9346;52.006;4.720;2023-05-09T09:36:12;101127.78;;;15.40;100.00
18436;BME280;9346;52.006;4.720;2023-05-09T09:38:43;101123.03;;;15.41;100.00
18436;BME280;9346;52.006;4.720;2023-05-09T09:41:12;101131.91;;;15.43;100.00
18436;BME280;9346;52.006;4.720;2023-05-09T09:43:44;101132.19;;;15.41;100.00
18436;BME280;9346;52.006;4.720;2023-05-09T09:46:12;101129.97;;;15.43;100.00
18436;BME280;9346;52.006;4.720;2023-05-09T09:48:45;101130.25;;;15.42;100.00
18436;BME280;9346;52.006;4.720;2023-05-09T09:51:15;101129.13;;;15.43;100.00
18436;BME280;9346;52.006;4.720;2023-05-09T09:53:43;101121.94;;;15.42;100.00
18436;BME280;9346;52.006;4.720;2023-05-09T09:56:13;101116.69;;;15.40;100.00
18436;BME280;9346;52.006;4.720;2023-05-09T09:58:40;101112.56;;;15.38;100.00
18436;BME280;9346;52.006;4.720;2023-05-09T10:01:08;101118.91;;;15.38;100.00
18436;BME280;9346;52.006;4.720;2023-05-09T10:03:37;101113.59;;;15.42;100.00
18436;BME280;9346;52.006;4.720;2023-05-09T10:06:08;101114.41;;;15.42;100.00
18436;BME280;9346;52.006;4.720;2023-05-09T10:08:38;101111.03;;;15.45;100.00
18436;BME280;9346;52.006;4.720;2023-05-09T10:11:05;101111.88;;;15.46;100.00
18436;BME280;9346;52.006;4.720;2023-05-09T10:13:35;101113.81;;;15.45;100.00
18436;BME280;9346;52.006;4.720;2023-05-09T10:16:07;101109.63;;;15.48;100.00
18436;BME280;9346;52.006;4.720;2023-05-09T10:18:35;101102.09;;;15.48;100.00
18436;BME280;9346;52.006;4.720;2023-05-09T10:21:02;101106.56;;;15.49;100.00
18436;BME280;9346;52.006;4.720;2023-05-09T10:23:33;101107.66;;;15.48;100.00
18436;BME280;9346;52.006;4.720;2023-05-09T10:26:08;101105.72;;;15.49;100.00
18436;BME280;9346;52.006;4.720;2023-05-09T10:28:41;101106.75;;;15.53;100.00
18436;BME280;9346;52.006;4.720;2023-05-09T10:31:13;101102.94;;;15.49;100.00
18436;BME280;9346;52.006;4.720;2023-05-09T10:33:45;101096.78;;;15.52;100.00
18436;BME280;9346;52.006;4.720;2023-05-09T10:36:14;101100.09;;;15.54;100.00
18436;BME280;9346;52.006;4.720;2023-05-09T10:38:43;101098.72;;;15.51;100.00
18436;BME280;9346;52.006;4.720;2023-05-09T10:41:11;101094.56;;;15.54;100.00
18436;BME280;9346;52.006;4.720;2023-05-09T10:43:38;101078.41;;;15.56;100.00
18436;BME280;9346;52.006;4.720;2023-05-09T10:46:07;101084.50;;;15.58;100.00
18436;BME280;9346;52.006;4.720;2023-05-09T10:48:35;101079.97;;;15.62;100.00
18436;BME280;9346;52.006;4.720;2023-05-09T10:51:03;101071.13;;;15.60;100.00
18436;BME280;9346;52.006;4.720;2023-05-09T10:53:39;101070.81;;;15.61;100.00
18436;BME280;9346;52.006;4.720;2023-05-09T10:56:06;101067.44;;;15.64;100.00
18436;BME280;9346;52.006;4.720;2023-05-09T10:58:33;101061.56;;;15.66;100.00
18436;BME280;9346;52.006;4.720;2023-05-09T11:01:04;101060.25;;;15.63;100.00
18436;BME280;9346;52.006;4.720;2023-05-09T11:03:53;101062.72;;;15.65;100.00
18436;BME280;9346;52.006;4.720;2023-05-09T11:06:43;101056.84;;;15.67;100.00
18436;BME280;9346;52.006;4.720;2023-05-09T11:09:30;101055.00;;;15.62;100.00
18436;BME280;9346;52.006;4.720;2023-05-09T11:12:13;101052.22;;;15.62;100.00
18436;BME280;9346;52.006;4.720;2023-05-09T11:14:42;101049.13;;;15.63;100.00
18436;BME280;9346;52.006;4.720;2023-05-09T11:17:11;101051.59;;;15.65;100.00
18436;BME280;9346;52.006;4.720;2023-05-09T11:20:01;101049.97;;;15.64;100.00
18436;BME280;9346;52.006;4.720;2023-05-09T11:22:37;101049.97;;;15.64;100.00
18436;BME280;9346;52.006;4.720;2023-05-09T11:25:07;101048.22;;;15.68;100.00
18436;BME280;9346;52.006;4.720;2023-05-09T11:27:39;101036.28;;;15.68;100.00
18436;BME280;9346;52.006;4.720;2023-05-09T11:30:08;101041.22;;;15.71;100.00
18436;BME280;9346;52.006;4.720;2023-05-09T11:32:44;101039.00;;;15.73;100.00
18436;BME280;9346;52.006;4.720;2023-05-09T11:35:14;101038.75;;;15.69;100.00
18436;BME280;9346;52.006;4.720;2023-05-09T11:37:47;101028.25;;;15.66;100.00
18436;BME280;9346;52.006;4.720;2023-05-09T11:40:15;101031.56;;;15.68;100.00
18436;BME280;9346;52.006;4.720;2023-05-09T11:42:44;101032.59;;;15.72;100.00
18436;BME280;9346;52.006;4.720;2023-05-09T11:45:13;101031.16;;;15.75;100.00
18436;BME280;9346;52.006;4.720;2023-05-09T11:47:40;101027.03;;;15.72;100.00
18436;BME280;9346;52.006;4.720;2023-05-09T11:50:09;101026.50;;;15.70;100.00
18436;BME280;9346;52.006;4.720;2023-05-09T11:52:39;101022.09;;;15.69;100.00
18436;BME280;9346;52.006;4.720;2023-05-09T11:55:07;101020.66;;;15.72;100.00
18436;BME280;9346;52.006;4.720;2023-05-09T11:57:35;101014.91;;;15.68;100.00
18436;BME280;9346;52.006;4.720;2023-05-09T12:00:06;101014.06;;;15.68;100.00
18436;BME280;9346;52.006;4.720;2023-05-09T12:02:33;101009.97;;;15.65;100.00
18436;BME280;9346;52.006;4.720;2023-05-09T12:05:08;101007.19;;;15.65;100.00
18436;BME280;9346;52.006;4.720;2023-05-09T12:07:35;101006.28;;;15.70;100.00
18436;BME280;9346;52.006;4.720;2023-05-09T12:10:07;101010.09;;;15.74;100.00
18436;BME280;9346;52.006;4.720;2023-05-09T12:12:35;101004.22;;;15.75;100.00
18436;BME280;9346;52.006;4.720;2023-05-09T12:15:05;101006.78;;;15.72;100.00
18436;BME280;9346;52.006;4.720;2023-05-09T12:17:33;101002.59;;;15.74;100.00
18436;BME280;9346;52.006;4.720;2023-05-09T12:20:00;100998.75;;;15.70;100.00
18436;BME280;9346;52.006;4.720;2023-05-09T12:22:29;100991.84;;;15.68;100.00
18436;BME280;9346;52.006;4.720;2023-05-09T12:24:58;100989.91;;;15.68;100.00
18436;BME280;9346;52.006;4.720;2023-05-09T12:27:27;100993.00;;;15.67;100.00
18436;BME280;9346;52.006;4.720;2023-05-09T12:29:54;100991.84;;;15.68;100.00
18436;BME280;9346;52.006;4.720;2023-05-09T12:32:21;100987.97;;;15.69;100.00
18436;BME280;9346;52.006;4.720;2023-05-09T12:34:48;100982.41;;;15.69;100.00
18436;BME280;9346;52.006;4.720;2023-05-09T12:37:17;100982.50;;;15.63;100.00
18436;BME280;9346;52.006;4.720;2023-05-09T12:39:59;100986.09;;;15.64;100.00
18436;BME280;9346;52.006;4.720;2023-05-09T12:42:30;100980.56;;;15.64;100.00
18436;BME280;9346;52.006;4.720;2023-05-09T12:44:57;100981.34;;;15.64;100.00
18436;BME280;9346;52.006;4.720;2023-05-09T12:47:25;100976.09;;;15.63;100.00
18436;BME280;9346;52.006;4.720;2023-05-09T12:49:56;100973.31;;;15.63;100.00
18436;BME280;9346;52.006;4.720;2023-05-09T12:52:23;100975.31;;;15.63;100.00
18436;BME280;9346;52.006;4.720;2023-05-09T12:54:51;100971.16;;;15.60;100.00
18436;BME280;9346;52.006;4.720;2023-05-09T12:57:23;100966.13;;;15.62;100.00
18436;BME280;9346;52.006;4.720;2023-05-09T12:59:56;100964.50;;;15.61;100.00